Decoded Metar for CYBQ ( in ) (IATA:) | Meteo·Mobile Aviation Weather
aviador You're here:

CYBQ Decoded Metar

in
Report Time2019-02-20 19:00:00
UTC Time2019-02-20 19:23:16
Flight Rules vfr VFR
Wind070° at 05 kt
W.Decomp.*RWY 07: 5.0 kt HW -0 kt LCW
W.Rank070° ranks 26
Current wind is below 070° avg. (6.8)
Visibility9999 m
Phenomena:N/A
Clouds:N/A
Expected CloudBase > 800 ft AGL from Temp-Dew spread
CeilingNone
Temp-23°C
Dew Point-25°C (84% RH)
AAT-28.5°C
QNH1018 hPa
Raw Report
METAR CYBQ 201900Z AUTO 07005KT 9SM CLR M23/M25 A3006 RMK SLP220=

Extra information for CYBQ:More info

Social comments